PWSweather.com
Personal Weather Stations
Station Observations
KPAMECHA5
Mechanicsburg, PA 17050

Mechanicsburg, PA 17050

Lat: 40.21531, Lon: -77.0395

Elevation: 430

Station Type: Davis 6322

http://MechanicsburgWeather.com

Latest ConditionsUpdated 6:20:03 PM EST Sunday, Mar 1, 2015
Currently Today's Max Today's Min Today's Average
Temperature 28.4°F-2.0°C 28.4°F-2.0°C 13.5°F-10.3°C 22.9°F-5.1°C
Dew Point 26.9°F-2.8°C 26.9°F-2.8°C 7.0°F-13.9°C 17.4°F-8.1°C
Winds Calm Calm 5.8 mph S9.3 kmh S - 1.7 mph 2.7 kmh
Wind Gusts -- 10.0 mph16.1 kmh - -
Humidity 94% 94% 62% 80%
Pressure 30.26 in1024.7 mb 30.67 in1038.6 mb 30.25 in1024.4 mb -
Hour Temp Dew Point Humidity Winds Wind Gusts Pressure Precip Precip Rate Daily Precip Total
06:20 PM 28.4°F-2.0°C 26.9°F-2.8°C 94% Calm Calm -- 30.26 in1024.7 mb 0.00 in0.0 mm 0.00 in/hr0.0 mm/hr 0.00 in0.0 mm
06:10 PM 28.4°F-2.0°C 26.6°F-3.0°C 93% 0.3 mph ESE0.5 kmh ESE 1.0 mph1.6 kmh 30.25 in1024.4 mb 0.00 in0.0 mm 0.00 in/hr0.0 mm/hr 0.00 in0.0 mm
06:00 PM 28.4°F-2.0°C 26.6°F-3.0°C 93% Calm Calm -- 30.26 in1024.7 mb 0.00 in0.0 mm 0.00 in/hr0.0 mm/hr 0.00 in0.0 mm
05:40 PM 28.4°F-2.0°C 26.6°F-3.0°C 93% Calm Calm -- 30.26 in1024.7 mb 0.00 in0.0 mm 0.00 in/hr0.0 mm/hr 0.00 in0.0 mm
05:30 PM 28.4°F-2.0°C 26.6°F-3.0°C 93% 0.4 mph ESE0.6 kmh ESE 1.0 mph1.6 kmh 30.27 in1025.1 mb 0.00 in0.0 mm 0.00 in/hr0.0 mm/hr 0.00 in0.0 mm
05:20 PM 28.3°F-2.1°C 26.3°F-3.2°C 92% 1.9 mph ESE3.1 kmh ESE 3.0 mph4.8 kmh 30.27 in1025.1 mb 0.00 in0.0 mm 0.00 in/hr0.0 mm/hr 0.00 in0.0 mm
05:10 PM 28.1°F-2.2°C 26.1°F-3.3°C 92% Calm Calm 1.0 mph1.6 kmh 30.28 in1025.4 mb 0.00 in0.0 mm 0.00 in/hr0.0 mm/hr 0.00 in0.0 mm
05:00 PM 28.0°F-2.2°C 26.0°F-3.3°C 92% Calm Calm -- 30.28 in1025.4 mb 0.00 in0.0 mm 0.00 in/hr0.0 mm/hr 0.00 in0.0 mm
04:50 PM 28.0°F-2.2°C 25.7°F-3.5°C 91% Calm Calm -- 30.28 in1025.4 mb 0.00 in0.0 mm 0.00 in/hr0.0 mm/hr 0.00 in0.0 mm
04:40 PM 28.0°F-2.2°C 25.7°F-3.5°C 91% Calm Calm -- 30.29 in1025.7 mb 0.00 in0.0 mm 0.00 in/hr0.0 mm/hr 0.00 in0.0 mm
04:30 PM 27.9°F-2.3°C 25.6°F-3.6°C 91% 1.1 mph ESE1.8 kmh ESE 2.0 mph3.2 kmh 30.29 in1025.7 mb 0.00 in0.0 mm 0.00 in/hr0.0 mm/hr 0.00 in0.0 mm
04:20 PM 27.9°F-2.3°C 25.3°F-3.7°C 90% 0.1 mph ESE0.2 kmh ESE 1.0 mph1.6 kmh 30.30 in1026.1 mb 0.00 in0.0 mm 0.00 in/hr0.0 mm/hr 0.00 in0.0 mm
04:10 PM 28.0°F-2.2°C 25.7°F-3.5°C 91% 0.1 mph SE0.2 kmh SE -- 30.30 in1026.1 mb 0.00 in0.0 mm 0.00 in/hr0.0 mm/hr 0.00 in0.0 mm
04:00 PM 27.8°F-2.3°C 25.3°F-3.7°C 90% 0.1 mph SE0.2 kmh SE -- 30.32 in1026.8 mb 0.00 in0.0 mm 0.00 in/hr0.0 mm/hr 0.00 in0.0 mm
03:50 PM 27.8°F-2.3°C 25.2°F-3.8°C 90% 1.9 mph SE3.1 kmh SE 2.0 mph3.2 kmh 30.32 in1026.8 mb 0.00 in0.0 mm 0.00 in/hr0.0 mm/hr 0.00 in0.0 mm
03:40 PM 27.6°F-2.4°C 25.1°F-3.8°C 90% 2.1 mph S3.4 kmh S 4.0 mph6.4 kmh 30.33 in1027.1 mb 0.00 in0.0 mm 0.00 in/hr0.0 mm/hr 0.00 in0.0 mm
03:30 PM 27.4°F-2.6°C 24.9°F-3.9°C 90% 1.2 mph SE1.9 kmh SE 2.0 mph3.2 kmh 30.33 in1027.1 mb 0.00 in0.0 mm 0.00 in/hr0.0 mm/hr 0.00 in0.0 mm
03:20 PM 27.3°F-2.6°C 24.8°F-4.0°C 90% 2.0 mph SSE3.2 kmh SSE 5.0 mph8.0 kmh 30.34 in1027.4 mb 0.00 in0.0 mm 0.00 in/hr0.0 mm/hr 0.00 in0.0 mm
03:10 PM 27.2°F-2.7°C 24.7°F-4.1°C 90% 0.1 mph S0.2 kmh S -- 30.34 in1027.4 mb 0.00 in0.0 mm 0.00 in/hr0.0 mm/hr 0.00 in0.0 mm
03:00 PM 27.1°F-2.7°C 24.6°F-4.1°C 90% 1.5 mph SSE2.4 kmh SSE 3.0 mph4.8 kmh 30.35 in1027.8 mb 0.00 in0.0 mm 0.00 in/hr0.0 mm/hr 0.00 in0.0 mm
02:50 PM 27.2°F-2.7°C 24.4°F-4.2°C 89% 0.8 mph SE1.3 kmh SE 4.0 mph6.4 kmh 30.35 in1027.8 mb 0.00 in0.0 mm 0.00 in/hr0.0 mm/hr 0.00 in0.0 mm
02:40 PM 27.3°F-2.6°C 24.5°F-4.2°C 89% 0.1 mph SE0.2 kmh SE 2.0 mph3.2 kmh 30.36 in1028.1 mb 0.00 in0.0 mm 0.00 in/hr0.0 mm/hr 0.00 in0.0 mm
02:30 PM 27.2°F-2.7°C 24.4°F-4.2°C 89% 0.2 mph SSE0.3 kmh SSE -- 30.37 in1028.4 mb 0.00 in0.0 mm 0.00 in/hr0.0 mm/hr 0.00 in0.0 mm
02:20 PM 27.1°F-2.7°C 24.6°F-4.1°C 90% 1.3 mph S2.1 kmh S 1.0 mph1.6 kmh 30.37 in1028.4 mb 0.00 in0.0 mm 0.00 in/hr0.0 mm/hr 0.00 in0.0 mm
02:10 PM 27.0°F-2.8°C 24.2°F-4.3°C 89% 2.6 mph SSE4.2 kmh SSE 4.0 mph6.4 kmh 30.37 in1028.4 mb 0.00 in0.0 mm 0.00 in/hr0.0 mm/hr 0.00 in0.0 mm
02:00 PM 26.8°F-2.9°C 24.0°F-4.4°C 89% 1.6 mph S2.6 kmh S 4.0 mph6.4 kmh 30.38 in1028.8 mb 0.00 in0.0 mm 0.00 in/hr0.0 mm/hr 0.00 in0.0 mm
01:50 PM 26.6°F-3.0°C 24.1°F-4.4°C 90% 2.8 mph SSW4.5 kmh SSW 5.0 mph8.0 kmh 30.39 in1029.1 mb 0.00 in0.0 mm 0.00 in/hr0.0 mm/hr 0.00 in0.0 mm
01:40 PM 26.2°F-3.2°C 23.4°F-4.8°C 89% 3.0 mph S4.8 kmh S 5.0 mph8.0 kmh 30.40 in1029.5 mb 0.00 in0.0 mm 0.00 in/hr0.0 mm/hr 0.00 in0.0 mm
01:30 PM 26.2°F-3.2°C 23.1°F-4.9°C 88% 2.1 mph S3.4 kmh S 2.0 mph3.2 kmh 30.41 in1029.8 mb 0.00 in0.0 mm 0.00 in/hr0.0 mm/hr 0.00 in0.0 mm
01:20 PM 26.3°F-3.2°C 23.5°F-4.7°C 89% 2.8 mph S4.5 kmh S 6.0 mph9.7 kmh 30.41 in1029.8 mb 0.00 in0.0 mm 0.00 in/hr0.0 mm/hr 0.00 in0.0 mm
01:10 PM 26.3°F-3.2°C 23.2°F-4.9°C 88% 5.8 mph S9.3 kmh S 9.0 mph14.5 kmh 30.43 in1030.5 mb 0.00 in0.0 mm 0.00 in/hr0.0 mm/hr 0.00 in0.0 mm
01:00 PM 26.3°F-3.2°C 23.2°F-4.9°C 88% 3.6 mph SSE5.8 kmh SSE 6.0 mph9.7 kmh 30.44 in1030.8 mb 0.00 in0.0 mm 0.00 in/hr0.0 mm/hr 0.00 in0.0 mm
12:50 PM 26.3°F-3.2°C 23.2°F-4.9°C 88% 5.1 mph S8.2 kmh S 7.0 mph11.3 kmh 30.45 in1031.2 mb 0.00 in0.0 mm 0.00 in/hr0.0 mm/hr 0.00 in0.0 mm
12:40 PM 26.2°F-3.2°C 23.1°F-4.9°C 88% 2.3 mph SSE3.7 kmh SSE 5.0 mph8.0 kmh 30.46 in1031.5 mb 0.00 in0.0 mm 0.00 in/hr0.0 mm/hr 0.00 in0.0 mm
12:30 PM 26.0°F-3.3°C 22.9°F-5.1°C 88% 2.2 mph S3.5 kmh S 5.0 mph8.0 kmh 30.47 in1031.8 mb 0.00 in0.0 mm 0.00 in/hr0.0 mm/hr 0.00 in0.0 mm
12:20 PM 25.9°F-3.4°C 22.6°F-5.2°C 87% 4.5 mph SSW7.2 kmh SSW 8.0 mph12.9 kmh 30.48 in1032.2 mb 0.00 in0.0 mm 0.00 in/hr0.0 mm/hr 0.00 in0.0 mm
12:10 PM 25.8°F-3.4°C 22.5°F-5.3°C 87% 5.2 mph S8.4 kmh S 6.0 mph9.7 kmh 30.48 in1032.2 mb 0.00 in0.0 mm 0.00 in/hr0.0 mm/hr 0.00 in0.0 mm
12:00 PM 25.7°F-3.5°C 22.6°F-5.2°C 88% 3.8 mph SSW6.1 kmh SSW 8.0 mph12.9 kmh 30.49 in1032.5 mb 0.00 in0.0 mm 0.00 in/hr0.0 mm/hr 0.00 in0.0 mm
11:50 AM 25.4°F-3.7°C 22.3°F-5.4°C 88% 3.3 mph SSW5.3 kmh SSW 6.0 mph9.7 kmh 30.50 in1032.8 mb 0.00 in0.0 mm 0.00 in/hr0.0 mm/hr 0.00 in0.0 mm
11:40 AM 25.1°F-3.8°C 22.1°F-5.5°C 88% 1.7 mph SSW2.7 kmh SSW 7.0 mph11.3 kmh 30.50 in1032.8 mb 0.00 in0.0 mm 0.00 in/hr0.0 mm/hr 0.00 in0.0 mm
10:50 AM 24.6°F-4.1°C 21.3°F-5.9°C 87% 2.3 mph S3.7 kmh S 7.0 mph11.3 kmh 30.52 in1033.5 mb 0.00 in0.0 mm 0.00 in/hr0.0 mm/hr 0.00 in0.0 mm
10:40 AM 24.3°F-4.3°C 21.0°F-6.1°C 87% 4.6 mph S7.4 kmh S 7.0 mph11.3 kmh 30.52 in1033.5 mb 0.00 in0.0 mm 0.00 in/hr0.0 mm/hr 0.00 in0.0 mm
10:30 AM 24.3°F-4.3°C 20.7°F-6.3°C 86% 3.9 mph SSW6.3 kmh SSW 10.0 mph16.1 kmh 30.52 in1033.5 mb 0.00 in0.0 mm 0.00 in/hr0.0 mm/hr 0.00 in0.0 mm
10:20 AM 24.2°F-4.3°C 20.6°F-6.3°C 86% 3.3 mph SSE5.3 kmh SSE 8.0 mph12.9 kmh 30.52 in1033.5 mb 0.00 in0.0 mm 0.00 in/hr0.0 mm/hr 0.00 in0.0 mm
10:10 AM 24.1°F-4.4°C 20.5°F-6.4°C 86% 2.9 mph S4.7 kmh S 7.0 mph11.3 kmh 30.53 in1033.9 mb 0.00 in0.0 mm 0.00 in/hr0.0 mm/hr 0.00 in0.0 mm
10:00 AM 23.8°F-4.6°C 20.5°F-6.4°C 87% 3.7 mph S6.0 kmh S 6.0 mph9.7 kmh 30.54 in1034.2 mb 0.00 in0.0 mm 0.00 in/hr0.0 mm/hr 0.00 in0.0 mm
09:50 AM 23.2°F-4.9°C 19.9°F-6.7°C 87% 3.5 mph SE5.6 kmh SE 7.0 mph11.3 kmh 30.54 in1034.2 mb 0.00 in0.0 mm 0.00 in/hr0.0 mm/hr 0.00 in0.0 mm
09:40 AM 22.8°F-5.1°C 19.5°F-6.9°C 87% 5.3 mph S8.5 kmh S 7.0 mph11.3 kmh 30.55 in1034.5 mb 0.00 in0.0 mm 0.00 in/hr0.0 mm/hr 0.00 in0.0 mm
09:30 AM 22.5°F-5.3°C 19.5°F-6.9°C 88% 3.1 mph S5.0 kmh S 5.0 mph8.0 kmh 30.55 in1034.5 mb 0.00 in0.0 mm 0.00 in/hr0.0 mm/hr 0.00 in0.0 mm
09:20 AM 22.2°F-5.4°C 19.2°F-7.1°C 88% 4.5 mph SSE7.2 kmh SSE 10.0 mph16.1 kmh 30.55 in1034.5 mb 0.00 in0.0 mm 0.00 in/hr0.0 mm/hr 0.00 in0.0 mm
09:10 AM 22.0°F-5.6°C 19.0°F-7.2°C 88% 3.9 mph SSE6.3 kmh SSE 7.0 mph11.3 kmh 30.55 in1034.5 mb 0.00 in0.0 mm 0.00 in/hr0.0 mm/hr 0.00 in0.0 mm
09:00 AM 21.8°F-5.7°C 18.8°F-7.3°C 88% 3.1 mph SE5.0 kmh SE 7.0 mph11.3 kmh 30.56 in1034.9 mb 0.00 in0.0 mm 0.00 in/hr0.0 mm/hr 0.00 in0.0 mm
08:50 AM 21.5°F-5.8°C 18.5°F-7.5°C 88% 2.8 mph SSE4.5 kmh SSE 5.0 mph8.0 kmh 30.55 in1034.5 mb 0.00 in0.0 mm 0.00 in/hr0.0 mm/hr 0.00 in0.0 mm
08:40 AM 21.3°F-5.9°C 18.3°F-7.6°C 88% 2.0 mph S3.2 kmh S 4.0 mph6.4 kmh 30.55 in1034.5 mb 0.00 in0.0 mm 0.00 in/hr0.0 mm/hr 0.00 in0.0 mm
08:30 AM 21.1°F-6.1°C 17.8°F-7.9°C 87% 3.7 mph S6.0 kmh S 6.0 mph9.7 kmh 30.56 in1034.9 mb 0.00 in0.0 mm 0.00 in/hr0.0 mm/hr 0.00 in0.0 mm
08:20 AM 20.9°F-6.2°C 17.6°F-8.0°C 87% 1.0 mph SE1.6 kmh SE 4.0 mph6.4 kmh 30.56 in1034.9 mb 0.00 in0.0 mm 0.00 in/hr0.0 mm/hr 0.00 in0.0 mm
08:10 AM 20.7°F-6.3°C 17.4°F-8.1°C 87% 4.9 mph SSE7.9 kmh SSE 8.0 mph12.9 kmh 30.56 in1034.9 mb 0.00 in0.0 mm 0.00 in/hr0.0 mm/hr 0.00 in0.0 mm
08:00 AM 20.5°F-6.4°C 17.0°F-8.3°C 86% 2.9 mph SSE4.7 kmh SSE 4.0 mph6.4 kmh 30.56 in1034.9 mb 0.00 in0.0 mm 0.00 in/hr0.0 mm/hr 0.00 in0.0 mm
07:50 AM 20.6°F-6.3°C 16.8°F-8.4°C 85% 3.5 mph SSE5.6 kmh SSE 5.0 mph8.0 kmh 30.57 in1035.2 mb 0.00 in0.0 mm 0.00 in/hr0.0 mm/hr 0.00 in0.0 mm
07:40 AM 20.7°F-6.3°C 16.4°F-8.7°C 83% 0.9 mph S1.4 kmh S 6.0 mph9.7 kmh 30.57 in1035.2 mb 0.00 in0.0 mm 0.00 in/hr0.0 mm/hr 0.00 in0.0 mm
07:30 AM 21.1°F-6.1°C 15.9°F-8.9°C 80% 2.4 mph SSE3.9 kmh SSE 5.0 mph8.0 kmh 30.57 in1035.2 mb 0.00 in0.0 mm 0.00 in/hr0.0 mm/hr 0.00 in0.0 mm
07:20 AM 21.6°F-5.8°C 14.9°F-9.5°C 75% 4.0 mph SSE6.4 kmh SSE 5.0 mph8.0 kmh 30.57 in1035.2 mb 0.00 in0.0 mm 0.00 in/hr0.0 mm/hr 0.00 in0.0 mm
07:10 AM 22.0°F-5.6°C 14.0°F-10.0°C 71% 4.5 mph S7.2 kmh S 8.0 mph12.9 kmh 30.57 in1035.2 mb 0.00 in0.0 mm 0.00 in/hr0.0 mm/hr 0.00 in0.0 mm
07:00 AM 22.2°F-5.4°C 13.2°F-10.4°C 68% 2.2 mph S3.5 kmh S 6.0 mph9.7 kmh 30.57 in1035.2 mb 0.00 in0.0 mm 0.00 in/hr0.0 mm/hr 0.00 in0.0 mm
06:50 AM 22.1°F-5.5°C 12.8°F-10.7°C 67% 2.7 mph S4.3 kmh S 8.0 mph12.9 kmh 30.57 in1035.2 mb 0.00 in0.0 mm 0.00 in/hr0.0 mm/hr 0.00 in0.0 mm
06:40 AM 22.1°F-5.5°C 12.5°F-10.8°C 66% 1.4 mph SE2.3 kmh SE 3.0 mph4.8 kmh 30.58 in1035.6 mb 0.00 in0.0 mm 0.00 in/hr0.0 mm/hr 0.00 in0.0 mm
06:30 AM 22.1°F-5.5°C 12.5°F-10.8°C 66% Calm Calm -- 30.59 in1035.9 mb 0.00 in0.0 mm 0.00 in/hr0.0 mm/hr 0.00 in0.0 mm
06:20 AM 22.1°F-5.5°C 12.1°F-11.1°C 65% 0.2 mph SSE0.3 kmh SSE 1.0 mph1.6 kmh 30.59 in1035.9 mb 0.00 in0.0 mm 0.00 in/hr0.0 mm/hr 0.00 in0.0 mm
06:10 AM 22.1°F-5.5°C 12.5°F-10.8°C 66% 0.4 mph SSE0.6 kmh SSE 4.0 mph6.4 kmh 30.59 in1035.9 mb 0.00 in0.0 mm 0.00 in/hr0.0 mm/hr 0.00 in0.0 mm
06:00 AM 22.1°F-5.5°C 12.5°F-10.8°C 66% 3.7 mph SE6.0 kmh SE 6.0 mph9.7 kmh 30.59 in1035.9 mb 0.00 in0.0 mm 0.00 in/hr0.0 mm/hr 0.00 in0.0 mm
05:50 AM 22.1°F-5.5°C 12.5°F-10.8°C 66% 1.0 mph SSE1.6 kmh SSE 3.0 mph4.8 kmh 30.59 in1035.9 mb 0.00 in0.0 mm 0.00 in/hr0.0 mm/hr 0.00 in0.0 mm
05:40 AM 22.2°F-5.4°C 12.2°F-11.0°C 65% 0.4 mph S0.6 kmh S 2.0 mph3.2 kmh 30.60 in1036.2 mb 0.00 in0.0 mm 0.00 in/hr0.0 mm/hr 0.00 in0.0 mm
05:30 AM 22.2°F-5.4°C 11.9°F-11.2°C 64% 1.1 mph SSE1.8 kmh SSE 5.0 mph8.0 kmh 30.60 in1036.2 mb 0.00 in0.0 mm 0.00 in/hr0.0 mm/hr 0.00 in0.0 mm
05:20 AM 22.2°F-5.4°C 11.9°F-11.2°C 64% 0.4 mph SSE0.6 kmh SSE 2.0 mph3.2 kmh 30.60 in1036.2 mb 0.00 in0.0 mm 0.00 in/hr0.0 mm/hr 0.00 in0.0 mm
05:10 AM 22.2°F-5.4°C 11.9°F-11.2°C 64% 2.6 mph S4.2 kmh S 6.0 mph9.7 kmh 30.60 in1036.2 mb 0.00 in0.0 mm 0.00 in/hr0.0 mm/hr 0.00 in0.0 mm
05:00 AM 22.2°F-5.4°C 11.9°F-11.2°C 64% 0.9 mph SSE1.4 kmh SSE 5.0 mph8.0 kmh 30.60 in1036.2 mb 0.00 in0.0 mm 0.00 in/hr0.0 mm/hr 0.00 in0.0 mm
04:50 AM 22.1°F-5.5°C 11.8°F-11.2°C 64% 1.0 mph SSE1.6 kmh SSE 5.0 mph8.0 kmh 30.60 in1036.2 mb 0.00 in0.0 mm 0.00 in/hr0.0 mm/hr 0.00 in0.0 mm
04:40 AM 22.0°F-5.6°C 11.7°F-11.3°C 64% 1.6 mph SE2.6 kmh SE 6.0 mph9.7 kmh 30.60 in1036.2 mb 0.00 in0.0 mm 0.00 in/hr0.0 mm/hr 0.00 in0.0 mm
04:30 AM 22.0°F-5.6°C 11.3°F-11.5°C 63% 0.8 mph S1.3 kmh S 3.0 mph4.8 kmh 30.60 in1036.2 mb 0.00 in0.0 mm 0.00 in/hr0.0 mm/hr 0.00 in0.0 mm
04:20 AM 22.0°F-5.6°C 11.3°F-11.5°C 63% 2.9 mph SSE4.7 kmh SSE 8.0 mph12.9 kmh 30.60 in1036.2 mb 0.00 in0.0 mm 0.00 in/hr0.0 mm/hr 0.00 in0.0 mm
04:10 AM 22.1°F-5.5°C 11.4°F-11.4°C 63% 0.2 mph SSE0.3 kmh SSE 4.0 mph6.4 kmh 30.60 in1036.2 mb 0.00 in0.0 mm 0.00 in/hr0.0 mm/hr 0.00 in0.0 mm
04:00 AM 22.1°F-5.5°C 11.4°F-11.4°C 63% 2.3 mph S3.7 kmh S 4.0 mph6.4 kmh 30.61 in1036.6 mb 0.00 in0.0 mm 0.00 in/hr0.0 mm/hr 0.00 in0.0 mm
03:50 AM 22.2°F-5.4°C 11.1°F-11.6°C 62% 3.4 mph S5.5 kmh S 5.0 mph8.0 kmh 30.61 in1036.6 mb 0.00 in0.0 mm 0.00 in/hr0.0 mm/hr 0.00 in0.0 mm
03:40 AM 22.1°F-5.5°C 11.4°F-11.4°C 63% 2.9 mph SSE4.7 kmh SSE 3.0 mph4.8 kmh 30.62 in1036.9 mb 0.00 in0.0 mm 0.00 in/hr0.0 mm/hr 0.00 in0.0 mm
03:30 AM 21.8°F-5.7°C 11.1°F-11.6°C 63% 2.1 mph SSE3.4 kmh SSE 5.0 mph8.0 kmh 30.62 in1036.9 mb 0.00 in0.0 mm 0.00 in/hr0.0 mm/hr 0.00 in0.0 mm
03:20 AM 21.1°F-6.1°C 11.1°F-11.6°C 65% 1.3 mph SSE2.1 kmh SSE 4.0 mph6.4 kmh 30.63 in1037.3 mb 0.00 in0.0 mm 0.00 in/hr0.0 mm/hr 0.00 in0.0 mm
03:10 AM 20.3°F-6.5°C 10.7°F-11.8°C 66% Calm Calm -- 30.64 in1037.6 mb 0.00 in0.0 mm 0.00 in/hr0.0 mm/hr 0.00 in0.0 mm
03:00 AM 19.7°F-6.8°C 9.9°F-12.3°C 65% Calm Calm -- 30.64 in1037.6 mb 0.00 in0.0 mm 0.00 in/hr0.0 mm/hr 0.00 in0.0 mm
02:50 AM 19.3°F-7.1°C 9.8°F-12.3°C 66% Calm Calm 1.0 mph1.6 kmh 30.65 in1037.9 mb 0.00 in0.0 mm 0.00 in/hr0.0 mm/hr 0.00 in0.0 mm
02:40 AM 18.9°F-7.3°C 10.7°F-11.8°C 70% Calm Calm -- 30.66 in1038.3 mb 0.00 in0.0 mm 0.00 in/hr0.0 mm/hr 0.00 in0.0 mm
02:30 AM 18.6°F-7.4°C 9.8°F-12.3°C 68% Calm Calm -- 30.65 in1037.9 mb 0.00 in0.0 mm 0.00 in/hr0.0 mm/hr 0.00 in0.0 mm
02:20 AM 18.5°F-7.5°C 9.7°F-12.4°C 68% Calm Calm -- 30.65 in1037.9 mb 0.00 in0.0 mm 0.00 in/hr0.0 mm/hr 0.00 in0.0 mm
02:10 AM 18.2°F-7.7°C 9.7°F-12.4°C 69% Calm Calm -- 30.65 in1037.9 mb 0.00 in0.0 mm 0.00 in/hr0.0 mm/hr 0.00 in0.0 mm
02:00 AM 17.1°F-8.3°C 8.0°F-13.3°C 67% Calm Calm -- 30.65 in1037.9 mb 0.00 in0.0 mm 0.00 in/hr0.0 mm/hr 0.00 in0.0 mm
01:50 AM 15.7°F-9.1°C 7.9°F-13.4°C 71% 0.3 mph SW0.5 kmh SW 1.0 mph1.6 kmh 30.65 in1037.9 mb 0.00 in0.0 mm 0.00 in/hr0.0 mm/hr 0.00 in0.0 mm
01:40 AM 14.4°F-9.8°C 7.9°F-13.4°C 75% Calm Calm -- 30.66 in1038.3 mb 0.00 in0.0 mm 0.00 in/hr0.0 mm/hr 0.00 in0.0 mm
01:30 AM 13.6°F-10.2°C 7.4°F-13.7°C 76% Calm Calm 1.0 mph1.6 kmh 30.65 in1037.9 mb 0.00 in0.0 mm 0.00 in/hr0.0 mm/hr 0.00 in0.0 mm
01:20 AM 13.5°F-10.3°C 7.3°F-13.7°C 76% Calm Calm -- 30.66 in1038.3 mb 0.00 in0.0 mm 0.00 in/hr0.0 mm/hr 0.00 in0.0 mm
01:10 AM 13.5°F-10.3°C 7.3°F-13.7°C 76% Calm Calm -- 30.66 in1038.3 mb 0.00 in0.0 mm 0.00 in/hr0.0 mm/hr 0.00 in0.0 mm
01:00 AM 13.5°F-10.3°C 7.0°F-13.9°C 75% Calm Calm -- 30.66 in1038.3 mb 0.00 in0.0 mm 0.00 in/hr0.0 mm/hr 0.00 in0.0 mm
12:50 AM 13.8°F-10.1°C 7.3°F-13.7°C 75% Calm Calm -- 30.67 in1038.6 mb 0.00 in0.0 mm 0.00 in/hr0.0 mm/hr 0.00 in0.0 mm
12:40 AM 14.1°F-9.9°C 7.4°F-13.7°C 74% Calm Calm -- 30.67 in1038.6 mb 0.00 in0.0 mm 0.00 in/hr0.0 mm/hr 0.00 in0.0 mm
12:30 AM 14.5°F-9.7°C 7.4°F-13.7°C 73% 0.1 mph SW0.2 kmh SW 1.0 mph1.6 kmh 30.67 in1038.6 mb 0.00 in0.0 mm 0.00 in/hr0.0 mm/hr 0.00 in0.0 mm
12:20 AM 14.7°F-9.6°C 7.6°F-13.6°C 73% Calm Calm -- 30.66 in1038.3 mb 0.00 in0.0 mm 0.00 in/hr0.0 mm/hr 0.00 in0.0 mm
12:10 AM 14.7°F-9.6°C 7.3°F-13.7°C 72% Calm Calm -- 30.66 in1038.3 mb 0.00 in0.0 mm 0.00 in/hr0.0 mm/hr 0.00 in0.0 mm
12:00 AM 14.9°F-9.5°C 7.1°F-13.8°C 71% Calm Calm -- 30.66 in1038.3 mb 0.00 in0.0 mm 0.00 in/hr0.0 mm/hr 0.00 in0.0 mm